Terminal Aerodrome Forecast
Issued by NWS

Home | Current Version | Previous Version | Text Only | Print | Product List | Glossary On
Versions: 1 2 3 4 5 6 7 8 9 10 11 12 13 14 15 16 17 18 19 20 21 22
000
FTUS45 KREV 282300
TAFCXP
TAF
KCXP 282339Z 2900/2924 27010KT P6SM VCSH BKN100 OVC200
      TEMPO 2900/2901 07012KT -SHRA
     FM290300 VRB04KT P6SM BKN120 OVC200
     FM292100 29008KT P6SM VCSH BKN100 BKN200=

USA.gov is the U.S. government's official web portal to all federal, state and local government web resources and services.